Terminal Aerodrome Forecast
Issued by NWS

Home | Current Version | Previous Version | Text Only | Print | Product List | Glossary On
Versions: 1 2 3 4 5 6 7 8 9 10 11 12 13 14 15 16 17 18 19 20 21 22 23 24 25 26 27 28 29 30 31 32 33 34 35 36 37 38
000
FTUS41 KBOX 151735
TAFBED
TAF
KBED 151735Z 1518/1618 22014G25KT P6SM FEW120 SCT250
     FM160400 21009KT P6SM OVC090
     FM160700 22008KT P6SM VCSH OVC070
     FM161300 21007KT P6SM -SHRA OVC045
     FM161400 21006KT P6SM -SHRA OVC030
     FM161600 20005KT 5SM -SHRA OVC010=

USA.gov is the U.S. government's official web portal to all federal, state and local government web resources and services.